sensor_id;sensor_type;location;lat;lon;timestamp;pressure;altitude;pressure_sealevel;temperature;humidity
59104;BME280;51449;51.676;5.812;2023-03-14T00:01:13;98883.44;;;12.60;73.17
59104;BME280;51449;51.676;5.812;2023-03-14T00:03:36;98877.16;;;12.56;73.93
59104;BME280;51449;51.676;5.812;2023-03-14T00:06:02;98876.72;;;12.50;74.45
59104;BME280;51449;51.676;5.812;2023-03-14T00:08:24;98873.59;;;12.45;74.84
59104;BME280;51449;51.676;5.812;2023-03-14T00:10:46;98876.34;;;12.41;74.78
59104;BME280;51449;51.676;5.812;2023-03-14T00:13:08;98872.38;;;12.38;74.85
59104;BME280;51449;51.676;5.812;2023-03-14T00:15:32;98877.53;;;12.36;74.82
59104;BME280;51449;51.676;5.812;2023-03-14T00:17:55;98870.44;;;12.32;74.85
59104;BME280;51449;51.676;5.812;2023-03-14T00:20:17;98869.63;;;12.35;74.76
59104;BME280;51449;51.676;5.812;2023-03-14T00:22:40;98864.91;;;12.32;74.70
59104;BME280;51449;51.676;5.812;2023-03-14T00:25:03;98870.44;;;12.32;74.62
59104;BME280;51449;51.676;5.812;2023-03-14T00:27:26;98879.09;;;12.30;74.14
59104;BME280;51449;51.676;5.812;2023-03-14T00:29:47;98876.75;;;12.32;74.17
59104;BME280;51449;51.676;5.812;2023-03-14T00:32:09;98874.78;;;12.29;74.23
59104;BME280;51449;51.676;5.812;2023-03-14T00:34:34;98877.50;;;12.26;73.91
59104;BME280;51449;51.676;5.812;2023-03-14T00:36:55;98884.59;;;12.23;73.93
59104;BME280;51449;51.676;5.812;2023-03-14T00:39:17;98883.03;;;12.22;74.01
59104;BME280;51449;51.676;5.812;2023-03-14T00:41:38;98885.78;;;12.18;73.32
59104;BME280;51449;51.676;5.812;2023-03-14T00:44:00;98884.22;;;12.17;72.68
59104;BME280;51449;51.676;5.812;2023-03-14T00:46:22;98882.25;;;12.14;71.71
59104;BME280;51449;51.676;5.812;2023-03-14T00:48:45;98870.00;;;12.12;70.69
59104;BME280;51449;51.676;5.812;2023-03-14T00:51:08;98888.13;;;12.09;69.46
59104;BME280;51449;51.676;5.812;2023-03-14T00:53:30;98888.13;;;12.06;68.48
59104;BME280;51449;51.676;5.812;2023-03-14T00:55:52;98887.75;;;12.07;68.54
59104;BME280;51449;51.676;5.812;2023-03-14T00:58:15;98894.03;;;12.04;67.89
59104;BME280;51449;51.676;5.812;2023-03-14T01:00:39;98896.03;;;12.00;67.34
59104;BME280;51449;51.676;5.812;2023-03-14T01:03:01;98891.66;;;11.99;66.57
59104;BME280;51449;51.676;5.812;2023-03-14T01:05:23;98891.28;;;12.01;66.09
59104;BME280;51449;51.676;5.812;2023-03-14T01:07:45;98896.81;;;12.01;65.96
59104;BME280;51449;51.676;5.812;2023-03-14T01:10:07;98889.31;;;11.97;66.29
59104;BME280;51449;51.676;5.812;2023-03-14T01:12:31;98896.03;;;12.00;66.48
59104;BME280;51449;51.676;5.812;2023-03-14T01:14:53;98901.53;;;12.00;66.42
59104;BME280;51449;51.676;5.812;2023-03-14T01:17:15;98886.56;;;11.97;66.19
59104;BME280;51449;51.676;5.812;2023-03-14T01:19:37;98886.56;;;11.97;66.18
59104;BME280;51449;51.676;5.812;2023-03-14T01:21:58;98887.34;;;12.02;65.93
59104;BME280;51449;51.676;5.812;2023-03-14T01:24:20;98893.22;;;11.96;66.06
59104;BME280;51449;51.676;5.812;2023-03-14T01:26:42;98889.69;;;11.96;66.20
59104;BME280;51449;51.676;5.812;2023-03-14T01:29:04;98890.47;;;11.96;66.00
59104;BME280;51449;51.676;5.812;2023-03-14T01:31:28;98877.47;;;11.97;65.90
59104;BME280;51449;51.676;5.812;2023-03-14T01:33:51;98896.00;;;11.96;65.70
59104;BME280;51449;51.676;5.812;2023-03-14T01:36:13;98891.66;;;11.99;65.93
59104;BME280;51449;51.676;5.812;2023-03-14T01:38:38;98878.66;;;11.99;65.68
59104;BME280;51449;51.676;5.812;2023-03-14T01:41:03;98872.34;;;11.95;65.45
59104;BME280;51449;51.676;5.812;2023-03-14T01:43:26;98868.41;;;11.96;65.56
59104;BME280;51449;51.676;5.812;2023-03-14T01:48:19;98853.03;;;11.95;65.88
59104;BME280;51449;51.676;5.812;2023-03-14T01:50:41;98857.34;;;11.96;66.08
59104;BME280;51449;51.676;5.812;2023-03-14T01:53:03;98853.03;;;11.95;66.07
59104;BME280;51449;51.676;5.812;2023-03-14T01:55:25;98849.03;;;11.86;65.90
59104;BME280;51449;51.676;5.812;2023-03-14T01:58:02;98848.66;;;11.87;65.63
59104;BME280;51449;51.676;5.812;2023-03-14T02:00:26;98850.19;;;11.85;65.73
59104;BME280;51449;51.676;5.812;2023-03-14T02:02:50;98847.06;;;11.86;66.24
59104;BME280;51449;51.676;5.812;2023-03-14T02:05:21;98840.38;;;11.87;66.77
59104;BME280;51449;51.676;5.812;2023-03-14T02:07:57;98837.22;;;11.85;66.60
59104;BME280;51449;51.676;5.812;2023-03-14T02:10:28;98836.03;;;11.86;66.67
59104;BME280;51449;51.676;5.812;2023-03-14T02:12:56;98854.13;;;11.80;66.83
59104;BME280;51449;51.676;5.812;2023-03-14T02:15:32;98838.38;;;11.77;66.72
59104;BME280;51449;51.676;5.812;2023-03-14T02:18:01;98841.13;;;11.77;66.82
59104;BME280;51449;51.676;5.812;2023-03-14T02:21:00;98836.00;;;11.75;66.63
59104;BME280;51449;51.676;5.812;2023-03-14T02:26:28;98843.09;;;11.73;66.85
59104;BME280;51449;51.676;5.812;2023-03-14T02:28:57;98832.44;;;11.75;67.30
59104;BME280;51449;51.676;5.812;2023-03-14T02:31:19;98839.53;;;11.72;67.42
59104;BME280;51449;51.676;5.812;2023-03-14T02:33:43;98841.91;;;11.74;67.32
59104;BME280;51449;51.676;5.812;2023-03-14T02:36:09;98839.56;;;11.76;67.20
59104;BME280;51449;51.676;5.812;2023-03-14T02:38:39;98837.59;;;11.76;67.05
59104;BME280;51449;51.676;5.812;2023-03-14T02:41:09;98847.41;;;11.77;67.26
59104;BME280;51449;51.676;5.812;2023-03-14T02:43:37;98838.78;;;11.75;67.49
59104;BME280;51449;51.676;5.812;2023-03-14T02:46:05;98838.78;;;11.75;67.93
59104;BME280;51449;51.676;5.812;2023-03-14T02:48:34;98847.84;;;11.76;67.50
59104;BME280;51449;51.676;5.812;2023-03-14T02:51:10;98843.09;;;11.76;67.84
59104;BME280;51449;51.676;5.812;2023-03-14T02:53:35;98832.06;;;11.76;67.77
59104;BME280;51449;51.676;5.812;2023-03-14T02:56:04;98824.16;;;11.75;67.44
59104;BME280;51449;51.676;5.812;2023-03-14T02:58:29;98831.28;;;11.76;67.73
59104;BME280;51449;51.676;5.812;2023-03-14T03:00:59;98826.16;;;11.78;67.95
59104;BME280;51449;51.676;5.812;2023-03-14T03:03:21;98836.41;;;11.81;67.93
59104;BME280;51449;51.676;5.812;2023-03-14T03:05:47;98832.47;;;11.82;67.73
59104;BME280;51449;51.676;5.812;2023-03-14T03:08:13;98827.31;;;11.77;68.06
59104;BME280;51449;51.676;5.812;2023-03-14T03:10:35;98824.97;;;11.79;67.80
59104;BME280;51449;51.676;5.812;2023-03-14T03:12:58;98831.28;;;11.79;68.17
59104;BME280;51449;51.676;5.812;2023-03-14T03:15:21;98830.88;;;11.81;68.12
59104;BME280;51449;51.676;5.812;2023-03-14T03:17:44;98832.44;;;11.75;68.48
59104;BME280;51449;51.676;5.812;2023-03-14T03:20:06;98837.19;;;11.71;68.82
59104;BME280;51449;51.676;5.812;2023-03-14T03:22:30;98836.78;;;11.69;69.22
59104;BME280;51449;51.676;5.812;2023-03-14T03:24:52;98823.78;;;11.66;69.37
59104;BME280;51449;51.676;5.812;2023-03-14T03:27:13;98831.25;;;11.62;69.43
59104;BME280;51449;51.676;5.812;2023-03-14T03:29:35;98829.63;;;11.61;70.28
59104;BME280;51449;51.676;5.812;2023-03-14T03:31:57;98823.34;;;11.60;69.96
59104;BME280;51449;51.676;5.812;2023-03-14T03:34:19;98818.22;;;11.59;70.55
59104;BME280;51449;51.676;5.812;2023-03-14T03:36:44;98826.50;;;11.62;70.21
59104;BME280;51449;51.676;5.812;2023-03-14T03:39:07;98823.38;;;11.64;70.22
59104;BME280;51449;51.676;5.812;2023-03-14T03:41:29;98824.13;;;11.61;70.10
59104;BME280;51449;51.676;5.812;2023-03-14T03:43:52;98825.31;;;11.60;70.58
59104;BME280;51449;51.676;5.812;2023-03-14T03:46:15;98832.81;;;11.59;70.61
59104;BME280;51449;51.676;5.812;2023-03-14T03:48:38;98827.69;;;11.61;70.62
59104;BME280;51449;51.676;5.812;2023-03-14T03:51:00;98813.09;;;11.61;70.58
59104;BME280;51449;51.676;5.812;2023-03-14T03:53:22;98811.13;;;11.57;70.78
59104;BME280;51449;51.676;5.812;2023-03-14T03:55:57;98814.28;;;11.56;70.83
59104;BME280;51449;51.676;5.812;2023-03-14T03:58:19;98813.09;;;11.53;70.84
59104;BME280;51449;51.676;5.812;2023-03-14T04:00:41;98815.47;;;11.51;70.90
59104;BME280;51449;51.676;5.812;2023-03-14T04:03:03;98804.81;;;11.46;71.05
59104;BME280;51449;51.676;5.812;2023-03-14T04:05:24;98801.66;;;11.44;71.12
59104;BME280;51449;51.676;5.812;2023-03-14T04:07:55;98813.06;;;11.46;71.38
59104;BME280;51449;51.676;5.812;2023-03-14T04:10:20;98802.81;;;11.47;70.98
59104;BME280;51449;51.676;5.812;2023-03-14T04:12:55;98799.28;;;11.46;70.83
59104;BME280;51449;51.676;5.812;2023-03-14T04:15:20;98796.91;;;11.45;71.05
59104;BME280;51449;51.676;5.812;2023-03-14T04:17:45;98787.44;;;11.42;71.11
59104;BME280;51449;51.676;5.812;2023-03-14T04:20:09;98787.03;;;11.40;71.00
59104;BME280;51449;51.676;5.812;2023-03-14T04:22:35;98795.69;;;11.39;71.07
59104;BME280;51449;51.676;5.812;2023-03-14T04:24:56;98799.22;;;11.35;70.94
59104;BME280;51449;51.676;5.812;2023-03-14T04:27:18;98798.84;;;11.30;71.32
59104;BME280;51449;51.676;5.812;2023-03-14T04:29:42;98798.44;;;11.28;71.26
59104;BME280;51449;51.676;5.812;2023-03-14T04:32:06;98799.63;;;11.27;71.10
59104;BME280;51449;51.676;5.812;2023-03-14T04:34:28;98801.97;;;11.25;71.11
59104;BME280;51449;51.676;5.812;2023-03-14T04:36:51;98798.81;;;11.23;70.97
59104;BME280;51449;51.676;5.812;2023-03-14T04:39:19;98802.34;;;11.20;71.19
59104;BME280;51449;51.676;5.812;2023-03-14T04:41:50;98796.44;;;11.18;70.79
59104;BME280;51449;51.676;5.812;2023-03-14T04:44:12;98787.75;;;11.16;70.97
59104;BME280;51449;51.676;5.812;2023-03-14T04:46:33;98785.00;;;11.12;71.10
59104;BME280;51449;51.676;5.812;2023-03-14T04:48:58;98783.41;;;11.11;71.39
59104;BME280;51449;51.676;5.812;2023-03-14T04:51:19;98780.63;;;11.07;71.38
59104;BME280;51449;51.676;5.812;2023-03-14T04:53:44;98774.72;;;11.05;71.53
59104;BME280;51449;51.676;5.812;2023-03-14T04:56:07;98773.50;;;10.99;71.97
59104;BME280;51449;51.676;5.812;2023-03-14T04:58:33;98775.47;;;10.99;72.00
59104;BME280;51449;51.676;5.812;2023-03-14T05:01:01;98780.59;;;11.00;72.26
59104;BME280;51449;51.676;5.812;2023-03-14T05:03:45;98771.16;;;10.98;72.36
59104;BME280;51449;51.676;5.812;2023-03-14T05:06:26;98770.34;;;10.97;72.62
59104;BME280;51449;51.676;5.812;2023-03-14T05:09:00;98776.63;;;10.94;73.18
59104;BME280;51449;51.676;5.812;2023-03-14T05:11:31;98767.56;;;10.93;73.22
59104;BME280;51449;51.676;5.812;2023-03-14T05:13:54;98777.41;;;10.91;73.66
59104;BME280;51449;51.676;5.812;2023-03-14T05:16:35;98772.69;;;10.91;74.21
59104;BME280;51449;51.676;5.812;2023-03-14T05:19:10;98772.31;;;10.93;74.52
59104;BME280;51449;51.676;5.812;2023-03-14T05:21:59;98782.88;;;10.87;76.46
59104;BME280;51449;51.676;5.812;2023-03-14T05:24:20;98789.16;;;10.81;77.72
59104;BME280;51449;51.676;5.812;2023-03-14T05:27:08;98795.06;;;10.79;78.13
59104;BME280;51449;51.676;5.812;2023-03-14T05:29:39;98782.84;;;10.73;79.12
59104;BME280;51449;51.676;5.812;2023-03-14T05:32:37;98787.91;;;10.67;79.26
59104;BME280;51449;51.676;5.812;2023-03-14T05:35:31;98790.25;;;10.65;79.57
59104;BME280;51449;51.676;5.812;2023-03-14T05:38:11;98785.50;;;10.59;80.69
59104;BME280;51449;51.676;5.812;2023-03-14T05:40:51;98778.81;;;10.56;80.77
59104;BME280;51449;51.676;5.812;2023-03-14T05:43:31;98775.22;;;10.56;80.45
59104;BME280;51449;51.676;5.812;2023-03-14T05:46:02;98773.66;;;10.51;81.45
59104;BME280;51449;51.676;5.812;2023-03-14T05:48:46;98777.19;;;10.52;81.67
59104;BME280;51449;51.676;5.812;2023-03-14T05:51:21;98772.06;;;10.46;81.84
59104;BME280;51449;51.676;5.812;2023-03-14T05:54:06;98773.19;;;10.45;82.59
59104;BME280;51449;51.676;5.812;2023-03-14T05:56:36;98772.00;;;10.43;82.47
59104;BME280;51449;51.676;5.812;2023-03-14T05:59:18;98778.28;;;10.40;83.18
59104;BME280;51449;51.676;5.812;2023-03-14T06:01:54;98764.91;;;10.38;83.14
59104;BME280;51449;51.676;5.812;2023-03-14T06:04:18;98757.81;;;10.37;83.76
59104;BME280;51449;51.676;5.812;2023-03-14T06:06:45;98759.38;;;10.35;83.99
59104;BME280;51449;51.676;5.812;2023-03-14T06:09:07;98746.78;;;10.34;83.90
59104;BME280;51449;51.676;5.812;2023-03-14T06:11:31;98746.03;;;10.37;84.19
59104;BME280;51449;51.676;5.812;2023-03-14T06:13:54;98746.41;;;10.35;84.30
59104;BME280;51449;51.676;5.812;2023-03-14T06:16:15;98745.63;;;10.35;84.85
59104;BME280;51449;51.676;5.812;2023-03-14T06:18:37;98750.34;;;10.38;84.53
59104;BME280;51449;51.676;5.812;2023-03-14T06:21:01;98744.06;;;10.41;84.56
59104;BME280;51449;51.676;5.812;2023-03-14T06:23:24;98747.66;;;10.45;84.48
59104;BME280;51449;51.676;5.812;2023-03-14T06:25:48;98753.94;;;10.45;84.51
59104;BME280;51449;51.676;5.812;2023-03-14T06:28:09;98748.44;;;10.45;84.65
59104;BME280;51449;51.676;5.812;2023-03-14T06:30:31;98754.34;;;10.47;84.72
59104;BME280;51449;51.676;5.812;2023-03-14T06:32:53;98756.72;;;10.49;84.54
59104;BME280;51449;51.676;5.812;2023-03-14T06:35:17;98762.28;;;10.56;84.38
59104;BME280;51449;51.676;5.812;2023-03-14T06:37:40;98761.91;;;10.61;84.70
59104;BME280;51449;51.676;5.812;2023-03-14T06:40:02;98763.88;;;10.64;84.26
59104;BME280;51449;51.676;5.812;2023-03-14T06:42:49;98764.72;;;10.68;84.07
59104;BME280;51449;51.676;5.812;2023-03-14T06:45:13;98769.44;;;10.71;84.30
59104;BME280;51449;51.676;5.812;2023-03-14T06:47:35;98762.00;;;10.76;84.06
59104;BME280;51449;51.676;5.812;2023-03-14T06:49:57;98765.50;;;10.73;84.49
59104;BME280;51449;51.676;5.812;2023-03-14T06:52:19;98768.28;;;10.76;84.66
59104;BME280;51449;51.676;5.812;2023-03-14T06:54:41;98764.38;;;10.81;84.45
59104;BME280;51449;51.676;5.812;2023-03-14T06:57:02;98758.09;;;10.84;84.81
59104;BME280;51449;51.676;5.812;2023-03-14T06:59:25;98765.16;;;10.85;84.69
59104;BME280;51449;51.676;5.812;2023-03-14T07:01:47;98768.31;;;10.87;84.88
59104;BME280;51449;51.676;5.812;2023-03-14T07:04:10;98762.81;;;10.87;84.48
59104;BME280;51449;51.676;5.812;2023-03-14T07:06:36;98784.84;;;10.87;84.67
59104;BME280;51449;51.676;5.812;2023-03-14T07:08:59;98785.25;;;10.89;84.86
59104;BME280;51449;51.676;5.812;2023-03-14T07:11:23;98781.34;;;10.93;84.76
59104;BME280;51449;51.676;5.812;2023-03-14T07:13:45;98782.94;;;10.98;84.98
59104;BME280;51449;51.676;5.812;2023-03-14T07:16:08;98783.38;;;11.04;84.71
59104;BME280;51449;51.676;5.812;2023-03-14T07:18:31;98783.78;;;11.02;84.97
59104;BME280;51449;51.676;5.812;2023-03-14T07:20:55;98791.25;;;11.05;84.85
59104;BME280;51449;51.676;5.812;2023-03-14T07:23:17;98797.19;;;11.11;84.73
59104;BME280;51449;51.676;5.812;2023-03-14T07:25:45;98791.28;;;11.12;84.82
59104;BME280;51449;51.676;5.812;2023-03-14T07:28:09;98797.22;;;11.14;84.25
59104;BME280;51449;51.676;5.812;2023-03-14T07:30:34;98796.41;;;11.14;84.63
59104;BME280;51449;51.676;5.812;2023-03-14T07:32:58;98809.00;;;11.15;84.29
59104;BME280;51449;51.676;5.812;2023-03-14T07:35:20;98806.63;;;11.13;84.70
59104;BME280;51449;51.676;5.812;2023-03-14T07:37:41;98808.22;;;11.14;84.46
59104;BME280;51449;51.676;5.812;2023-03-14T07:40:05;98813.34;;;11.12;84.96
59104;BME280;51449;51.676;5.812;2023-03-14T07:42:29;98839.72;;;11.10;84.51
59104;BME280;51449;51.676;5.812;2023-03-14T07:45:12;98892.44;;;11.05;85.02
59104;BME280;51449;51.676;5.812;2023-03-14T07:47:34;98906.03;;;10.80;76.59
59104;BME280;51449;51.676;5.812;2023-03-14T07:49:56;98922.19;;;10.37;76.60
59104;BME280;51449;51.676;5.812;2023-03-14T07:52:17;98932.47;;;10.06;77.69
59104;BME280;51449;51.676;5.812;2023-03-14T07:54:39;98933.81;;;9.85;78.68
59104;BME280;51449;51.676;5.812;2023-03-14T07:57:01;98946.22;;;9.72;79.41
59104;BME280;51449;51.676;5.812;2023-03-14T07:59:23;98959.47;;;9.63;79.52
59104;BME280;51449;51.676;5.812;2023-03-14T08:01:44;98961.72;;;9.54;79.89
59104;BME280;51449;51.676;5.812;2023-03-14T08:04:07;98967.91;;;9.47;80.28
59104;BME280;51449;51.676;5.812;2023-03-14T08:06:29;98975.25;;;9.39;80.59
59104;BME280;51449;51.676;5.812;2023-03-14T08:08:50;98991.25;;;9.34;80.85
59104;BME280;51449;51.676;5.812;2023-03-14T08:11:12;98987.19;;;9.24;80.81
59104;BME280;51449;51.676;5.812;2023-03-14T08:13:34;98996.50;;;9.16;81.56
59104;BME280;51449;51.676;5.812;2023-03-14T08:15:57;99003.50;;;9.10;81.48
59104;BME280;51449;51.676;5.812;2023-03-14T08:18:18;99014.41;;;9.06;82.12
59104;BME280;51449;51.676;5.812;2023-03-14T08:20:40;99022.59;;;9.03;82.23
59104;BME280;51449;51.676;5.812;2023-03-14T08:23:02;99025.28;;;8.99;82.16
59104;BME280;51449;51.676;5.812;2023-03-14T08:25:24;99022.53;;;8.99;82.66
59104;BME280;51449;51.676;5.812;2023-03-14T08:27:47;99030.75;;;8.99;82.25
59104;BME280;51449;51.676;5.812;2023-03-14T08:30:14;99040.53;;;8.96;82.59
59104;BME280;51449;51.676;5.812;2023-03-14T08:32:37;99051.97;;;8.98;82.56
59104;BME280;51449;51.676;5.812;2023-03-14T08:35:00;99063.38;;;9.00;82.34
59104;BME280;51449;51.676;5.812;2023-03-14T08:37:22;99072.41;;;9.01;82.53
59104;BME280;51449;51.676;5.812;2023-03-14T08:39:47;99076.44;;;9.07;82.68
59104;BME280;51449;51.676;5.812;2023-03-14T08:42:09;99090.72;;;9.16;82.78
59104;BME280;51449;51.676;5.812;2023-03-14T08:44:30;99095.09;;;9.21;82.12
59104;BME280;51449;51.676;5.812;2023-03-14T08:46:52;99098.63;;;9.21;82.06
59104;BME280;51449;51.676;5.812;2023-03-14T08:49:15;99100.25;;;9.23;81.52
59104;BME280;51449;51.676;5.812;2023-03-14T08:51:36;99121.47;;;9.26;80.82
59104;BME280;51449;51.676;5.812;2023-03-14T08:53:58;99130.94;;;9.28;80.27
59104;BME280;51449;51.676;5.812;2023-03-14T08:56:20;99134.13;;;9.30;80.05
59104;BME280;51449;51.676;5.812;2023-03-14T08:58:44;99145.16;;;9.34;79.52
59104;BME280;51449;51.676;5.812;2023-03-14T09:01:07;99153.38;;;9.30;79.19
59104;BME280;51449;51.676;5.812;2023-03-14T09:03:30;99162.78;;;9.29;79.83
59104;BME280;51449;51.676;5.812;2023-03-14T09:05:52;99158.44;;;9.28;79.84
59104;BME280;51449;51.676;5.812;2023-03-14T09:08:13;99172.56;;;9.27;79.24
59104;BME280;51449;51.676;5.812;2023-03-14T09:10:36;99186.16;;;9.19;78.66
59104;BME280;51449;51.676;5.812;2023-03-14T09:12:59;99193.88;;;9.14;78.96
59104;BME280;51449;51.676;5.812;2023-03-14T09:15:21;99206.06;;;9.13;79.30
59104;BME280;51449;51.676;5.812;2023-03-14T09:17:43;99226.72;;;9.07;79.58
59104;BME280;51449;51.676;5.812;2023-03-14T09:20:06;99248.56;;;8.99;79.21
59104;BME280;51449;51.676;5.812;2023-03-14T09:22:28;99269.09;;;8.86;77.43
59104;BME280;51449;51.676;5.812;2023-03-14T09:24:50;99271.03;;;8.66;76.54
59104;BME280;51449;51.676;5.812;2023-03-14T09:27:12;99305.06;;;8.46;76.67
59104;BME280;51449;51.676;5.812;2023-03-14T09:29:34;99297.56;;;8.27;76.69
59104;BME280;51449;51.676;5.812;2023-03-14T09:31:57;99309.75;;;8.13;77.30
59104;BME280;51449;51.676;5.812;2023-03-14T09:34:20;99330.75;;;8.06;77.87
59104;BME280;51449;51.676;5.812;2023-03-14T09:36:42;99348.25;;;8.01;78.28
59104;BME280;51449;51.676;5.812;2023-03-14T09:39:05;99359.56;;;8.00;77.54
59104;BME280;51449;51.676;5.812;2023-03-14T09:41:31;99370.47;;;7.96;77.28
59104;BME280;51449;51.676;5.812;2023-03-14T09:44:10;99363.81;;;7.97;77.43
59104;BME280;51449;51.676;5.812;2023-03-14T09:46:41;99371.97;;;7.93;76.65
59104;BME280;51449;51.676;5.812;2023-03-14T09:49:12;99392.66;;;7.91;76.16
59104;BME280;51449;51.676;5.812;2023-03-14T09:51:57;99402.56;;;7.96;75.83
59104;BME280;51449;51.676;5.812;2023-03-14T09:57:15;99437.38;;;8.23;74.66
59104;BME280;51449;51.676;5.812;2023-03-14T09:59:41;99418.53;;;8.38;73.99
59104;BME280;51449;51.676;5.812;2023-03-14T10:02:18;99457.97;;;8.45;71.56
59104;BME280;51449;51.676;5.812;2023-03-14T10:04:44;99440.38;;;8.46;71.83
59104;BME280;51449;51.676;5.812;2023-03-14T10:07:13;99453.00;;;8.51;70.79
59104;BME280;51449;51.676;5.812;2023-03-14T10:09:36;99479.22;;;8.48;71.37
59104;BME280;51449;51.676;5.812;2023-03-14T10:11:58;99498.44;;;8.48;71.34
59104;BME280;51449;51.676;5.812;2023-03-14T10:14:34;99522.00;;;8.49;70.19
59104;BME280;51449;51.676;5.812;2023-03-14T10:17:10;99513.13;;;8.40;69.69
59104;BME280;51449;51.676;5.812;2023-03-14T10:19:34;99518.84;;;8.35;70.55
59104;BME280;51449;51.676;5.812;2023-03-14T10:22:00;99540.69;;;8.31;69.06
59104;BME280;51449;51.676;5.812;2023-03-14T10:27:00;99561.66;;;8.24;68.00
59104;BME280;51449;51.676;5.812;2023-03-14T10:29:27;99569.88;;;8.24;68.43
59104;BME280;51449;51.676;5.812;2023-03-14T10:31:56;99601.31;;;8.26;68.06
59104;BME280;51449;51.676;5.812;2023-03-14T10:34:27;99598.69;;;8.30;67.53
59104;BME280;51449;51.676;5.812;2023-03-14T10:36:59;99605.06;;;8.34;66.70
59104;BME280;51449;51.676;5.812;2023-03-14T10:39:38;99627.81;;;8.34;66.39
59104;BME280;51449;51.676;5.812;2023-03-14T10:42:15;99634.34;;;8.42;65.63
59104;BME280;51449;51.676;5.812;2023-03-14T10:44:42;99626.66;;;8.48;64.96
59104;BME280;51449;51.676;5.812;2023-03-14T10:47:05;99651.03;;;8.49;64.69
59104;BME280;51449;51.676;5.812;2023-03-14T10:51:52;99662.53;;;8.55;63.93
59104;BME280;51449;51.676;5.812;2023-03-14T10:54:21;99656.09;;;8.63;64.34
59104;BME280;51449;51.676;5.812;2023-03-14T10:56:56;99678.38;;;8.74;63.87
59104;BME280;51449;51.676;5.812;2023-03-14T10:59:19;99680.63;;;8.84;64.30
59104;BME280;51449;51.676;5.812;2023-03-14T11:01:47;99700.03;;;8.91;62.65
59104;BME280;51449;51.676;5.812;2023-03-14T11:04:38;99722.13;;;8.95;62.48
59104;BME280;51449;51.676;5.812;2023-03-14T11:07:33;99713.97;;;8.98;61.75
59104;BME280;51449;51.676;5.812;2023-03-14T11:15:36;99746.84;;;9.23;62.46
59104;BME280;51449;51.676;5.812;2023-03-14T11:20:59;99743.84;;;9.28;62.54
59104;BME280;51449;51.676;5.812;2023-03-14T11:23:50;99777.53;;;9.25;60.76
59104;BME280;51449;51.676;5.812;2023-03-14T11:26:48;99806.56;;;9.10;62.07
59104;BME280;51449;51.676;5.812;2023-03-14T11:29:35;99840.53;;;8.53;62.84
59104;BME280;51449;51.676;5.812;2023-03-14T11:32:04;99840.94;;;8.06;64.11
59104;BME280;51449;51.676;5.812;2023-03-14T11:34:52;99843.06;;;7.76;64.85
59104;BME280;51449;51.676;5.812;2023-03-14T11:37:29;99838.00;;;7.65;66.42
59104;BME280;51449;51.676;5.812;2023-03-14T11:40:22;99848.97;;;7.65;66.85
59104;BME280;51449;51.676;5.812;2023-03-14T11:42:53;99851.03;;;7.68;66.79
59104;BME280;51449;51.676;5.812;2023-03-14T11:45:32;99871.63;;;7.75;66.54
59104;BME280;51449;51.676;5.812;2023-03-14T11:48:09;99873.00;;;7.81;66.64
59104;BME280;51449;51.676;5.812;2023-03-14T11:50:38;99878.19;;;7.94;66.40
59104;BME280;51449;51.676;5.812;2023-03-14T11:53:09;99879.13;;;8.11;66.20
59104;BME280;51449;51.676;5.812;2023-03-14T11:55:37;99884.78;;;8.27;66.23
59104;BME280;51449;51.676;5.812;2023-03-14T11:58:14;99884.19;;;8.33;64.94
59104;BME280;51449;51.676;5.812;2023-03-14T12:00:43;99893.25;;;8.34;65.51
59104;BME280;51449;51.676;5.812;2023-03-14T12:08:22;99925.44;;;8.12;66.81
59104;BME280;51449;51.676;5.812;2023-03-14T12:10:56;99934.22;;;8.06;67.89
59104;BME280;51449;51.676;5.812;2023-03-14T12:13:28;99929.53;;;8.06;67.89
59104;BME280;51449;51.676;5.812;2023-03-14T12:15:56;99946.72;;;8.15;65.92
59104;BME280;51449;51.676;5.812;2023-03-14T12:18:28;99955.03;;;8.19;65.51
59104;BME280;51449;51.676;5.812;2023-03-14T12:21:00;99971.09;;;8.29;65.39
59104;BME280;51449;51.676;5.812;2023-03-14T12:23:26;99993.75;;;8.39;63.63
59104;BME280;51449;51.676;5.812;2023-03-14T12:26:26;99977.22;;;8.47;62.54
59104;BME280;51449;51.676;5.812;2023-03-14T12:39:20;99984.72;;;8.96;58.17
59104;BME280;51449;51.676;5.812;2023-03-14T12:41:46;99987.34;;;9.05;56.30
59104;BME280;51449;51.676;5.812;2023-03-14T12:46:50;99993.84;;;9.37;56.04
59104;BME280;51449;51.676;5.812;2023-03-14T12:49:12;99996.34;;;9.54;55.68
59104;BME280;51449;51.676;5.812;2023-03-14T12:51:36;100016.09;;;9.72;55.77
59104;BME280;51449;51.676;5.812;2023-03-14T12:59:56;100009.78;;;9.84;47.33
59104;BME280;51449;51.676;5.812;2023-03-14T13:02:26;100017.56;;;9.82;47.82
59104;BME280;51449;51.676;5.812;2023-03-14T13:04:52;100042.00;;;9.83;48.20
59104;BME280;51449;51.676;5.812;2023-03-14T13:12:38;100046.22;;;9.93;45.86
59104;BME280;51449;51.676;5.812;2023-03-14T13:15:20;100063.41;;;9.90;45.77
59104;BME280;51449;51.676;5.812;2023-03-14T13:17:47;100058.53;;;9.71;46.39
59104;BME280;51449;51.676;5.812;2023-03-14T13:20:22;100072.28;;;9.71;46.31
59104;BME280;51449;51.676;5.812;2023-03-14T13:22:55;100085.78;;;9.76;46.42
59104;BME280;51449;51.676;5.812;2023-03-14T13:25:17;100086.25;;;9.78;46.33
59104;BME280;51449;51.676;5.812;2023-03-14T13:27:42;100087.75;;;9.76;45.93
59104;BME280;51449;51.676;5.812;2023-03-14T13:30:17;100103.66;;;9.82;44.24
59104;BME280;51449;51.676;5.812;2023-03-14T13:32:43;100110.78;;;9.83;42.50
59104;BME280;51449;51.676;5.812;2023-03-14T13:35:17;100114.31;;;9.84;43.28
59104;BME280;51449;51.676;5.812;2023-03-14T13:37:41;100122.69;;;9.88;43.70
59104;BME280;51449;51.676;5.812;2023-03-14T13:40:03;100121.28;;;9.94;43.13
59104;BME280;51449;51.676;5.812;2023-03-14T13:42:29;100115.22;;;10.00;43.33
59104;BME280;51449;51.676;5.812;2023-03-14T13:44:52;100118.84;;;10.04;43.07
59104;BME280;51449;51.676;5.812;2023-03-14T13:47:18;100129.41;;;10.15;43.96
59104;BME280;51449;51.676;5.812;2023-03-14T13:49:43;100135.66;;;10.27;43.01
59104;BME280;51449;51.676;5.812;2023-03-14T13:52:29;100138.41;;;10.27;42.49